Time;durP1;ratioP1;P1;durP2;ratioP2;P2;SDS_P1;SDS_P2;PMS_P1;PMS_P2;Temp;Humidity;BMP_temperature;BMP_pressure;BME280_temperature;BME280_humidity;BME280_pressure;Samples;Min_cycle;Max_cycle;Signal;HPM_P1;HPM_P2
2023/10/04 00:02:06;;;;;;;5.23;4.73;;;10.80;99.90;;;;;;4971765;28;20456;-63
2023/10/04 00:04:34;;;;;;;3.60;3.30;;;10.70;99.90;;;;;;4971472;28;21074;-63
2023/10/04 00:07:04;;;;;;;4.10;3.63;;;10.70;99.90;;;;;;4973171;28;20466;-63
2023/10/04 00:09:31;;;;;;;4.77;4.37;;;10.70;99.90;;;;;;4975463;28;20478;-63
2023/10/04 00:11:58;;;;;;;3.37;3.17;;;10.70;99.90;;;;;;4975188;28;20499;-63
2023/10/04 00:14:25;;;;;;;5.30;4.87;;;10.70;99.90;;;;;;4974938;28;20561;-63
2023/10/04 00:16:53;;;;;;;5.00;3.93;;;10.70;99.90;;;;;;4975212;28;20551;-63
2023/10/04 00:19:20;;;;;;;4.30;3.60;;;10.60;99.90;;;;;;4975378;28;20446;-62
2023/10/04 00:21:46;;;;;;;4.73;3.53;;;10.60;99.90;;;;;;4975298;28;20941;-63
2023/10/04 00:24:15;;;;;;;4.60;4.20;;;10.60;99.90;;;;;;4973719;28;20903;-63
2023/10/04 00:26:43;;;;;;;5.70;3.17;;;10.60;99.90;;;;;;4974974;28;20836;-62
2023/10/04 00:29:11;;;;;;;4.33;3.70;;;10.50;99.90;;;;;;4957151;28;20492;-63
2023/10/04 00:31:38;;;;;;;3.60;3.30;;;10.50;99.90;;;;;;4966425;28;21025;-63
2023/10/04 00:34:07;;;;;;;4.20;3.80;;;10.50;99.90;;;;;;4972392;28;20466;-63
2023/10/04 00:36:33;;;;;;;4.10;3.07;;;10.50;99.90;;;;;;4974975;28;20494;-63
2023/10/04 00:39:00;;;;;;;3.47;3.17;;;10.50;99.90;;;;;;4974862;28;20461;-63
2023/10/04 00:41:30;;;;;;;4.27;3.37;;;10.50;99.90;;;;;;4974892;28;20455;-63
2023/10/04 00:44:00;;;;;;;5.30;4.23;;;10.50;99.90;;;;;;4974340;28;20987;-63
2023/10/04 00:46:29;;;;;;;14.53;4.30;;;10.40;99.90;;;;;;4967641;28;20456;-63
2023/10/04 00:48:57;;;;;;;3.77;3.23;;;10.50;99.90;;;;;;4974844;28;20459;-63
2023/10/04 00:51:26;;;;;;;9.60;2.77;;;10.40;99.90;;;;;;4974615;28;20542;-63
2023/10/04 00:53:53;;;;;;;5.90;3.43;;;10.40;99.90;;;;;;4974331;28;20565;-63
2023/10/04 00:56:20;;;;;;;3.90;3.60;;;10.40;99.90;;;;;;4974524;28;20527;-63
2023/10/04 00:58:48;;;;;;;8.00;3.30;;;10.30;99.90;;;;;;4974790;28;20454;-63
2023/10/04 01:01:15;;;;;;;3.50;3.30;;;10.30;99.90;;;;;;4974508;28;20452;-63
2023/10/04 01:03:43;;;;;;;3.73;3.40;;;10.30;99.90;;;;;;4974192;28;21086;-63
2023/10/04 01:06:11;;;;;;;3.17;2.87;;;10.30;99.90;;;;;;4974447;28;20454;-63
2023/10/04 01:08:39;;;;;;;3.20;2.90;;;10.30;99.90;;;;;;4974293;28;20457;-62
2023/10/04 01:11:07;;;;;;;3.17;2.87;;;10.30;99.90;;;;;;4974203;28;20465;-63
2023/10/04 01:13:34;;;;;;;3.27;2.97;;;10.20;99.90;;;;;;4973851;28;20581;-63
2023/10/04 01:16:08;;;;;;;4.60;2.60;;;10.20;99.90;;;;;;4973795;28;20463;-63
2023/10/04 01:18:36;;;;;;;3.30;3.00;;;10.20;99.90;;;;;;4967240;28;20454;-63
2023/10/04 01:21:02;;;;;;;3.07;2.67;;;10.20;99.90;;;;;;4974119;28;20459;-63
2023/10/04 01:23:31;;;;;;;3.97;3.60;;;10.10;99.90;;;;;;4973488;28;20481;-63
2023/10/04 01:25:58;;;;;;;2.90;2.70;;;10.10;99.90;;;;;;4974212;28;20553;-63
2023/10/04 01:28:28;;;;;;;4.97;3.23;;;10.00;99.90;;;;;;4974124;28;20458;-63
2023/10/04 01:30:56;;;;;;;4.97;2.97;;;10.00;99.90;;;;;;4973987;28;20459;-63
2023/10/04 01:33:23;;;;;;;4.37;3.27;;;10.00;99.90;;;;;;4973453;28;20581;-62
2023/10/04 01:35:51;;;;;;;3.87;3.00;;;10.00;99.90;;;;;;4973808;28;20505;-63
2023/10/04 01:38:21;;;;;;;5.30;3.30;;;9.90;99.90;;;;;;4973784;28;20517;-63
2023/10/04 01:40:49;;;;;;;3.33;3.00;;;9.90;99.90;;;;;;4973969;28;20533;-63
2023/10/04 01:43:17;;;;;;;3.43;3.10;;;9.90;99.90;;;;;;4973542;28;20562;-63
2023/10/04 01:45:45;;;;;;;3.43;3.20;;;9.90;99.90;;;;;;4973837;28;20455;-63
2023/10/04 01:48:15;;;;;;;3.33;3.03;;;9.90;99.90;;;;;;4973579;28;21022;-63
2023/10/04 01:50:42;;;;;;;2.97;2.67;;;9.90;99.90;;;;;;4973588;28;20980;-63
2023/10/04 01:53:09;;;;;;;3.63;3.43;;;9.90;99.90;;;;;;4973262;28;20531;-62
2023/10/04 01:55:36;;;;;;;4.27;3.17;;;9.90;99.90;;;;;;4973549;28;20483;-63
2023/10/04 01:58:06;;;;;;;3.67;3.37;;;9.80;99.90;;;;;;4973450;28;20941;-62
2023/10/04 02:00:33;;;;;;;3.00;2.47;;;9.80;99.90;;;;;;4973480;28;20482;-62
2023/10/04 02:03:01;;;;;;;3.67;3.30;;;9.80;99.90;;;;;;4973099;28;20471;-63
2023/10/04 02:05:31;;;;;;;3.13;2.83;;;9.80;99.90;;;;;;4973576;28;20850;-62
2023/10/04 02:07:58;;;;;;;3.47;3.17;;;9.80;99.90;;;;;;4973581;28;20457;-63
2023/10/04 02:10:25;;;;;;;5.40;2.80;;;9.80;99.90;;;;;;4973309;28;20447;-63
2023/10/04 02:12:53;;;;;;;4.90;3.20;;;9.80;99.90;;;;;;4972864;28;20491;-63
2023/10/04 02:15:22;;;;;;;6.53;3.57;;;9.80;99.90;;;;;;4972818;28;20454;-63
2023/10/04 02:17:49;;;;;;;3.03;2.83;;;9.80;99.90;;;;;;4973225;28;20498;-63
2023/10/04 02:20:23;;;;;;;2.70;2.50;;;9.80;99.90;;;;;;4973223;28;20455;-63
2023/10/04 02:22:50;;;;;;;3.50;3.20;;;9.80;99.90;;;;;;4972816;28;20529;-63
2023/10/04 02:25:17;;;;;;;5.53;2.83;;;9.80;99.90;;;;;;4972863;28;20455;-63
2023/10/04 02:27:48;;;;;;;3.27;2.30;;;9.70;99.90;;;;;;4966446;28;20463;-63
2023/10/04 02:30:15;;;;;;;3.10;2.90;;;9.70;99.90;;;;;;4970978;28;20459;-63
2023/10/04 02:32:44;;;;;;;3.30;2.87;;;9.70;99.90;;;;;;4972663;28;20513;-63
2023/10/04 02:35:21;;;;;;;3.77;3.07;;;9.70;99.90;;;;;;4972982;28;20509;-63
2023/10/04 02:37:48;;;;;;;5.70;3.40;;;9.70;99.90;;;;;;4972864;28;20458;-63
2023/10/04 02:40:16;;;;;;;4.00;2.97;;;9.70;99.90;;;;;;4972797;28;20451;-63
2023/10/04 02:42:44;;;;;;;5.97;4.70;;;9.70;99.90;;;;;;4972376;28;20477;-63
2023/10/04 02:45:18;;;;;;;4.50;3.20;;;9.60;99.90;;;;;;4972633;28;20474;-63
2023/10/04 02:47:49;;;;;;;2.50;2.30;;;9.60;99.90;;;;;;4972818;28;20458;-63
2023/10/04 02:50:17;;;;;;;2.67;2.47;;;9.60;99.90;;;;;;4972774;28;20478;-63
2023/10/04 02:52:44;;;;;;;4.43;3.60;;;9.60;99.90;;;;;;4972433;28;20581;-63
2023/10/04 02:55:16;;;;;;;4.20;3.90;;;9.60;99.90;;;;;;4972352;28;20453;-63
2023/10/04 02:57:43;;;;;;;5.03;3.60;;;9.60;99.90;;;;;;4972858;28;20886;-63
2023/10/04 03:00:16;;;;;;;4.13;3.10;;;9.60;99.90;;;;;;4972627;28;20465;-63
2023/10/04 03:02:44;;;;;;;3.20;2.60;;;9.60;99.90;;;;;;4972527;28;20522;-63
2023/10/04 03:05:14;;;;;;;3.50;2.87;;;9.50;99.90;;;;;;4970857;28;20462;-63
2023/10/04 03:07:43;;;;;;;3.73;3.40;;;9.50;99.90;;;;;;4971876;28;20542;-63
2023/10/04 03:10:12;;;;;;;3.07;2.80;;;9.50;99.90;;;;;;4964499;28;20455;-63
2023/10/04 03:12:41;;;;;;;7.90;3.80;;;9.50;99.90;;;;;;4972095;28;20486;-63
2023/10/04 03:15:10;;;;;;;2.67;2.40;;;9.50;99.90;;;;;;4964107;28;20831;-63
2023/10/04 03:17:37;;;;;;;5.63;2.93;;;9.40;99.90;;;;;;4971871;28;20827;-63
2023/10/04 03:20:11;;;;;;;3.47;3.25;;;9.40;99.90;;;;;;4972196;28;20525;-63
2023/10/04 03:22:42;;;;;;;3.13;2.53;;;9.40;99.90;;;;;;4972308;28;20216;-63
2023/10/04 03:25:15;;;;;;;4.57;2.70;;;9.40;99.90;;;;;;4972212;28;20461;-63
2023/10/04 03:27:43;;;;;;;3.10;2.80;;;9.40;99.90;;;;;;4972375;28;20506;-63
2023/10/04 03:30:15;;;;;;;4.00;2.70;;;9.40;99.90;;;;;;4972312;28;20785;-63
2023/10/04 03:32:43;;;;;;;3.40;3.10;;;9.40;99.90;;;;;;4971817;28;20497;-63
2023/10/04 03:35:14;;;;;;;6.53;3.30;;;9.40;99.90;;;;;;4972025;28;20846;-63
2023/10/04 03:37:49;;;;;;;4.10;2.87;;;9.40;99.90;;;;;;4972341;28;20549;-63
2023/10/04 03:40:17;;;;;;;3.07;2.77;;;9.30;99.90;;;;;;4972201;28;21003;-63
2023/10/04 03:42:46;;;;;;;3.60;3.20;;;9.30;99.90;;;;;;4974354;28;20474;-63
2023/10/04 03:45:13;;;;;;;4.77;3.00;;;9.30;99.90;;;;;;4975730;28;20460;-63
2023/10/04 03:47:41;;;;;;;6.93;3.50;;;9.30;99.90;;;;;;4976091;28;20468;-63
2023/10/04 03:50:11;;;;;;;3.13;2.83;;;9.30;99.90;;;;;;4976078;28;20488;-63
2023/10/04 03:52:39;;;;;;;4.63;4.33;;;9.30;99.90;;;;;;4975674;28;20462;-63
2023/10/04 03:55:09;;;;;;;5.73;3.50;;;9.30;99.90;;;;;;4975738;28;20461;-63
2023/10/04 03:57:42;;;;;;;4.57;3.83;;;9.30;99.90;;;;;;4975867;28;20450;-63
2023/10/04 04:00:12;;;;;;;3.50;3.20;;;9.30;99.90;;;;;;4974468;28;20972;-63
2023/10/04 04:02:39;;;;;;;2.90;2.67;;;9.30;99.90;;;;;;4975762;28;20876;-63
2023/10/04 04:05:09;;;;;;;3.97;3.63;;;9.30;99.90;;;;;;4975547;28;20460;-63
2023/10/04 04:07:35;;;;;;;2.90;2.70;;;9.30;99.90;;;;;;4975515;28;20453;-63
2023/10/04 04:10:03;;;;;;;3.00;2.70;;;9.30;99.90;;;;;;4975458;28;20508;-63
2023/10/04 04:12:31;;;;;;;3.47;3.17;;;9.20;99.90;;;;;;4975179;28;20454;-63
2023/10/04 04:14:58;;;;;;;3.00;2.77;;;9.20;99.90;;;;;;4975474;28;20459;-63
2023/10/04 04:17:27;;;;;;;5.57;3.40;;;9.20;99.90;;;;;;4975568;28;20454;-63
2023/10/04 04:19:54;;;;;;;3.03;2.83;;;9.30;99.90;;;;;;4975393;28;20943;-63
2023/10/04 04:22:24;;;;;;;5.10;3.47;;;9.30;99.90;;;;;;4975346;28;20534;-63
2023/10/04 04:24:51;;;;;;;3.67;3.27;;;9.30;99.90;;;;;;4975078;28;20468;-63
2023/10/04 04:27:22;;;;;;;3.03;2.50;;;9.20;99.90;;;;;;4975373;28;20454;-63
2023/10/04 04:29:52;;;;;;;2.97;2.77;;;9.20;99.90;;;;;;4975297;28;20459;-63
2023/10/04 04:32:26;;;;;;;3.10;2.80;;;9.20;99.90;;;;;;4975003;28;20461;-63
2023/10/04 04:34:53;;;;;;;3.93;3.03;;;9.20;99.90;;;;;;4974796;28;20491;-63
2023/10/04 04:37:23;;;;;;;3.00;2.70;;;9.20;99.90;;;;;;4974870;28;20458;-63
2023/10/04 04:39:51;;;;;;;4.13;2.80;;;9.20;99.90;;;;;;4974902;28;20486;-63
2023/10/04 04:42:29;;;;;;;3.70;3.10;;;9.20;99.90;;;;;;4974836;28;20465;-63
2023/10/04 04:44:57;;;;;;;3.03;2.83;;;9.20;99.90;;;;;;4974694;28;20860;-63
2023/10/04 04:47:24;;;;;;;5.97;3.30;;;9.20;99.90;;;;;;4974868;28;20455;-63
2023/10/04 04:49:52;;;;;;;4.10;3.57;;;9.20;99.90;;;;;;4974617;28;20447;-63
2023/10/04 04:52:19;;;;;;;5.47;4.50;;;9.20;99.90;;;;;;4974524;28;20459;-63
2023/10/04 04:54:45;;;;;;;4.30;2.70;;;9.20;99.90;;;;;;4973708;28;20498;-63
2023/10/04 04:57:12;;;;;;;3.37;3.10;;;9.20;99.90;;;;;;4974576;28;20451;-64
2023/10/04 04:59:42;;;;;;;4.30;3.23;;;9.20;99.90;;;;;;4974700;28;20541;-63
2023/10/04 05:02:11;;;;;;;4.80;3.70;;;9.20;99.90;;;;;;4974517;28;20511;-63
2023/10/04 05:04:38;;;;;;;3.87;3.47;;;9.20;99.90;;;;;;4974024;28;21005;-63
2023/10/04 05:07:09;;;;;;;3.10;2.83;;;9.10;99.90;;;;;;4974435;28;20454;-63
2023/10/04 05:09:36;;;;;;;5.67;3.00;;;9.10;99.90;;;;;;4974584;28;20452;-63
2023/10/04 05:12:03;;;;;;;4.00;3.10;;;9.10;99.90;;;;;;4974476;28;20848;-63
2023/10/04 05:14:29;;;;;;;3.40;2.70;;;9.10;99.90;;;;;;4973832;28;20498;-63
2023/10/04 05:16:56;;;;;;;3.10;2.83;;;9.10;99.90;;;;;;4974219;28;20859;-63
2023/10/04 05:19:25;;;;;;;7.90;3.20;;;9.20;99.90;;;;;;4974099;28;20458;-63
2023/10/04 05:21:52;;;;;;;4.37;3.10;;;9.20;99.90;;;;;;4974329;28;20590;-63
2023/10/04 05:24:19;;;;;;;3.40;3.10;;;9.10;99.90;;;;;;4997161;22;20673;-66
2023/10/04 05:26:46;;;;;;;3.53;2.90;;;9.10;99.90;;;;;;4974560;28;20446;-65
2023/10/04 05:29:13;;;;;;;4.17;3.80;;;9.20;99.90;;;;;;4974310;28;20457;-66
2023/10/04 05:31:41;;;;;;;4.00;3.30;;;9.20;99.90;;;;;;4974172;28;20447;-66
2023/10/04 05:34:08;;;;;;;3.80;3.40;;;9.20;99.90;;;;;;4973945;28;20490;-66
2023/10/04 05:36:39;;;;;;;3.40;2.73;;;9.20;99.90;;;;;;4974106;28;21051;-65
2023/10/04 05:39:08;;;;;;;3.53;3.10;;;9.10;99.90;;;;;;4974194;28;20457;-66
2023/10/04 05:41:35;;;;;;;6.93;3.15;;;9.20;99.90;;;;;;4974120;28;20912;-66
2023/10/04 05:44:03;;;;;;;2.58;2.42;;;9.20;99.90;;;;;;4973593;28;20227;-65
2023/10/04 05:46:30;;;;;;;4.43;2.90;;;9.20;99.90;;;;;;4973929;28;20215;-65
2023/10/04 05:48:57;;;;;;;4.23;3.23;;;9.20;99.90;;;;;;4974091;28;20557;-66
2023/10/04 05:51:24;;;;;;;4.55;3.45;;;9.20;99.90;;;;;;4974044;28;20446;-66
2023/10/04 05:53:53;;;;;;;3.72;3.33;;;9.20;99.90;;;;;;4973517;28;20242;-66
2023/10/04 05:56:21;;;;;;;4.27;3.70;;;9.20;99.90;;;;;;4973917;28;20216;-66
2023/10/04 05:58:48;;;;;;;3.80;3.30;;;9.30;99.90;;;;;;4973608;28;20486;-66
2023/10/04 06:01:17;;;;;;;4.70;3.40;;;9.20;99.90;;;;;;4973893;28;20450;-66
2023/10/04 06:03:44;;;;;;;3.70;3.23;;;9.30;99.90;;;;;;4973269;28;20481;-66
2023/10/04 06:06:11;;;;;;;3.67;3.30;;;9.30;99.90;;;;;;4973589;28;20450;-66
2023/10/04 06:08:38;;;;;;;5.40;3.50;;;9.30;99.90;;;;;;4973301;28;20490;-66
2023/10/04 06:11:06;;;;;;;4.40;3.93;;;9.30;99.90;;;;;;4973627;28;20454;-67
2023/10/04 06:13:34;;;;;;;3.40;3.10;;;9.30;99.90;;;;;;4972951;28;20498;-66
2023/10/04 06:16:01;;;;;;;3.50;3.20;;;9.30;99.90;;;;;;4973635;28;20459;-66
2023/10/04 06:18:29;;;;;;;7.03;4.80;;;9.30;99.90;;;;;;4971491;28;20481;-66
2023/10/04 06:20:56;;;;;;;3.50;3.20;;;9.30;99.90;;;;;;4973213;28;20454;-65
2023/10/04 06:23:24;;;;;;;2.90;2.70;;;9.30;99.90;;;;;;4972655;28;20439;-66
2023/10/04 06:25:51;;;;;;;4.80;4.00;;;9.30;99.90;;;;;;4972969;28;20451;-65
2023/10/04 06:28:20;;;;;;;3.67;3.30;;;9.40;99.90;;;;;;4972920;28;20450;-65
2023/10/04 06:30:48;;;;;;;4.17;3.77;;;9.40;99.90;;;;;;4972931;28;20486;-66
2023/10/04 06:33:16;;;;;;;4.87;3.93;;;9.50;99.90;;;;;;4972560;28;20521;-65
2023/10/04 06:35:43;;;;;;;4.33;3.87;;;9.50;99.90;;;;;;4972866;28;20453;-65
2023/10/04 06:38:11;;;;;;;4.07;3.70;;;9.60;99.90;;;;;;4972633;28;20450;-64
2023/10/04 06:40:39;;;;;;;4.70;4.30;;;9.70;99.90;;;;;;4972626;28;20949;-65
2023/10/04 06:43:08;;;;;;;4.70;3.47;;;9.70;99.90;;;;;;4972657;28;20561;-64
2023/10/04 06:45:39;;;;;;;4.23;3.93;;;9.80;99.90;;;;;;4972621;28;20476;-65
2023/10/04 06:48:07;;;;;;;4.07;3.43;;;9.80;99.90;;;;;;4972700;28;20458;-64
2023/10/04 06:50:38;;;;;;;4.70;3.13;;;9.90;99.90;;;;;;4972745;28;20609;-65
2023/10/04 06:53:05;;;;;;;5.30;3.93;;;10.00;99.90;;;;;;4972298;28;20446;-64
2023/10/04 06:55:33;;;;;;;4.70;4.30;;;10.00;99.90;;;;;;4972477;28;20530;-65
2023/10/04 06:58:01;;;;;;;4.23;3.27;;;10.10;99.90;;;;;;4972435;28;20506;-65
2023/10/04 07:00:30;;;;;;;4.27;3.50;;;10.10;99.90;;;;;;4972641;28;20545;-65
2023/10/04 07:03:01;;;;;;;3.90;3.60;;;10.20;99.90;;;;;;4972196;28;20462;-65
2023/10/04 07:05:31;;;;;;;3.20;3.00;;;10.20;99.90;;;;;;4972130;28;20483;-64
2023/10/04 07:07:58;;;;;;;3.87;3.43;;;10.30;99.90;;;;;;4972732;28;20449;-64
2023/10/04 07:10:27;;;;;;;4.63;3.53;;;10.30;99.90;;;;;;4972609;28;20473;-66
2023/10/04 07:12:56;;;;;;;3.60;3.40;;;10.30;99.90;;;;;;4972226;28;20453;-65
2023/10/04 07:15:24;;;;;;;3.70;2.97;;;10.40;99.90;;;;;;4972356;28;20494;-65
2023/10/04 07:17:51;;;;;;;4.43;3.80;;;10.40;99.90;;;;;;4978026;28;20459;-65
2023/10/04 07:20:23;;;;;;;3.93;3.53;;;10.40;99.90;;;;;;4979100;28;20540;-64
2023/10/04 07:22:52;;;;;;;4.43;4.00;;;10.50;99.90;;;;;;4979162;28;20447;-65
2023/10/04 07:25:19;;;;;;;4.30;3.90;;;10.50;99.90;;;;;;4978627;28;20483;-65
2023/10/04 07:27:47;;;;;;;5.30;4.90;;;10.60;99.90;;;;;;4979058;28;20472;-65
2023/10/04 07:30:15;;;;;;;4.70;4.30;;;10.60;99.90;;;;;;4978979;28;20490;-65
2023/10/04 07:32:42;;;;;;;6.73;4.43;;;10.70;99.90;;;;;;4978686;28;20894;-65
2023/10/04 07:35:12;;;;;;;7.13;5.90;;;10.80;99.90;;;;;;4978772;28;20494;-65
2023/10/04 07:37:40;;;;;;;4.73;3.87;;;10.90;99.90;;;;;;4979012;28;20454;-64
2023/10/04 07:40:10;;;;;;;5.47;4.90;;;11.00;99.90;;;;;;4978836;28;20967;-65
2023/10/04 07:42:37;;;;;;;8.07;5.13;;;11.10;99.90;;;;;;4978847;28;20840;-64
2023/10/04 07:45:05;;;;;;;4.90;4.40;;;11.20;99.90;;;;;;4978403;28;20553;-65
2023/10/04 07:47:33;;;;;;;7.70;4.40;;;11.40;99.90;;;;;;4979056;28;20459;-65
2023/10/04 07:50:00;;;;;;;14.63;4.90;;;11.50;99.90;;;;;;4978939;28;20538;-65
2023/10/04 07:52:27;;;;;;;3.90;3.50;;;11.60;99.90;;;;;;4978671;28;20539;-64
2023/10/04 07:54:57;;;;;;;5.60;3.53;;;11.70;99.90;;;;;;4978375;28;20523;-65
2023/10/04 07:57:23;;;;;;;4.87;3.60;;;11.80;99.90;;;;;;4978680;28;20455;-66
2023/10/04 07:59:51;;;;;;;7.70;3.50;;;11.90;99.90;;;;;;4978955;28;20457;-65
2023/10/04 08:02:18;;;;;;;4.97;4.00;;;12.00;99.90;;;;;;4978856;28;20466;-66
2023/10/04 08:04:48;;;;;;;5.30;4.77;;;12.10;99.90;;;;;;4978337;28;20985;-65
2023/10/04 08:07:18;;;;;;;13.73;5.17;;;12.20;99.90;;;;;;4978622;28;21117;-66
2023/10/04 08:09:45;;;;;;;4.70;3.43;;;12.30;99.90;;;;;;4978704;28;20455;-65
2023/10/04 08:12:13;;;;;;;5.70;3.70;;;12.40;99.90;;;;;;4978462;28;20531;-66
2023/10/04 08:14:40;;;;;;;3.23;2.93;;;12.40;99.90;;;;;;4978229;28;20494;-65
2023/10/04 08:17:08;;;;;;;3.57;2.73;;;12.60;99.90;;;;;;4977059;28;20443;-65
2023/10/04 08:19:35;;;;;;;3.77;3.27;;;12.70;99.90;;;;;;4978184;28;20460;-66
2023/10/04 08:22:03;;;;;;;6.17;3.80;;;12.70;99.90;;;;;;4978209;28;20477;-65
2023/10/04 08:24:31;;;;;;;3.37;3.03;;;12.90;99.90;;;;;;4977671;28;20498;-65
2023/10/04 08:26:59;;;;;;;6.63;3.10;;;12.90;99.90;;;;;;4978264;28;20888;-65
2023/10/04 08:29:27;;;;;;;5.47;3.27;;;13.00;99.90;;;;;;4975053;28;20461;-65
2023/10/04 08:31:54;;;;;;;6.20;4.50;;;13.10;99.90;;;;;;4975178;28;20447;-65
2023/10/04 08:34:21;;;;;;;4.27;2.97;;;13.20;99.90;;;;;;4974794;28;20519;-65
2023/10/04 08:36:47;;;;;;;5.17;3.27;;;13.30;99.90;;;;;;4974989;28;20440;-65
2023/10/04 08:39:14;;;;;;;5.90;3.10;;;13.30;99.90;;;;;;4974300;28;20544;-65
2023/10/04 08:41:41;;;;;;;6.00;2.87;;;13.40;99.90;;;;;;4974865;28;20542;-65
2023/10/04 08:44:08;;;;;;;5.20;2.70;;;13.50;99.90;;;;;;4974624;28;20467;-65
2023/10/04 08:46:39;;;;;;;5.50;2.30;;;13.50;99.90;;;;;;4974880;28;20448;-66
2023/10/04 08:49:10;;;;;;;3.60;2.93;;;13.60;99.90;;;;;;4974780;28;20546;-67
2023/10/04 08:51:48;;;;;;;3.93;3.17;;;13.60;99.90;;;;;;4974305;28;20507;-66
2023/10/04 08:54:21;;;;;;;3.37;2.40;;;13.80;99.90;;;;;;4974322;28;20542;-67
2023/10/04 08:56:55;;;;;;;4.10;2.20;;;13.90;99.90;;;;;;4974842;28;20472;-67
2023/10/04 08:59:23;;;;;;;6.20;2.77;;;14.00;99.90;;;;;;4974396;28;20455;-67
2023/10/04 09:01:54;;;;;;;6.00;4.03;;;14.10;99.90;;;;;;4974204;28;20448;-66
2023/10/04 09:04:24;;;;;;;3.17;2.03;;;14.10;99.90;;;;;;4973793;28;20488;-67
2023/10/04 09:06:52;;;;;;;6.10;3.00;;;14.20;99.90;;;;;;4972364;28;20465;-67
2023/10/04 09:09:20;;;;;;;2.37;2.17;;;14.30;99.90;;;;;;4974044;28;20831;-66
2023/10/04 09:11:47;;;;;;;4.53;2.90;;;14.30;99.90;;;;;;4974163;28;20461;-67
2023/10/04 09:14:15;;;;;;;3.47;2.27;;;14.30;99.90;;;;;;4973878;28;20476;-67
2023/10/04 09:16:42;;;;;;;4.27;2.90;;;14.40;99.90;;;;;;4974113;28;20884;-66
2023/10/04 09:19:14;;;;;;;2.60;2.13;;;14.40;99.90;;;;;;4973331;28;20440;-67
2023/10/04 09:21:41;;;;;;;3.43;2.20;;;14.40;99.90;;;;;;4973763;28;20484;-67
2023/10/04 09:24:11;;;;;;;5.43;2.27;;;14.40;99.90;;;;;;4973329;28;20535;-67
2023/10/04 09:26:39;;;;;;;3.73;2.17;;;14.50;99.90;;;;;;4973926;28;20487;-67
2023/10/04 09:29:07;;;;;;;4.90;3.27;;;14.60;99.90;;;;;;4973482;28;20441;-67
2023/10/04 09:31:50;;;;;;;3.83;3.13;;;14.80;99.90;;;;;;4973850;28;20453;-66
2023/10/04 09:34:18;;;;;;;4.33;2.53;;;14.90;99.90;;;;;;4973404;28;20473;-67
2023/10/04 09:36:45;;;;;;;2.60;2.27;;;15.10;99.90;;;;;;4973834;28;20462;-67
2023/10/04 09:39:13;;;;;;;5.13;2.20;;;15.20;99.90;;;;;;4972937;28;20464;-67
2023/10/04 09:41:47;;;;;;;5.80;2.40;;;15.40;99.90;;;;;;4973626;28;21190;-67
2023/10/04 09:44:24;;;;;;;6.90;2.47;;;15.60;99.90;;;;;;4973610;28;20476;-67
2023/10/04 09:46:56;;;;;;;3.70;2.37;;;15.70;99.90;;;;;;4973849;28;20454;-67
2023/10/04 09:49:26;;;;;;;2.90;2.40;;;15.90;99.90;;;;;;4973582;28;20449;-67
2023/10/04 09:51:56;;;;;;;4.40;2.13;;;15.90;99.90;;;;;;4973496;28;20454;-67
2023/10/04 09:54:23;;;;;;;6.37;2.50;;;16.10;99.90;;;;;;4973068;28;20563;-67
2023/10/04 09:56:53;;;;;;;3.43;3.00;;;16.20;99.90;;;;;;4973285;28;20454;-66
2023/10/04 09:59:21;;;;;;;4.20;2.30;;;16.20;99.90;;;;;;4973199;28;20442;-67
2023/10/04 10:01:54;;;;;;;2.20;2.10;;;16.30;99.90;;;;;;4971416;28;20453;-66
2023/10/04 10:04:26;;;;;;;3.57;2.27;;;16.40;99.90;;;;;;4972860;28;20471;-67
2023/10/04 10:07:09;;;;;;;2.30;2.07;;;16.50;99.90;;;;;;4979483;28;20941;-67
2023/10/04 10:09:48;;;;;;;2.30;2.10;;;16.50;99.90;;;;;;4973211;28;20937;-67
2023/10/04 10:12:16;;;;;;;3.07;2.07;;;16.50;99.90;;;;;;4973069;28;20445;-67
2023/10/04 10:14:45;;;;;;;5.50;1.80;;;16.40;99.90;;;;;;4971937;28;20490;-67
2023/10/04 10:17:12;;;;;;;4.17;2.50;;;16.30;99.90;;;;;;4972815;28;20465;-67
2023/10/04 10:19:40;;;;;;;5.47;4.97;;;16.20;99.90;;;;;;4972734;28;20829;-66
2023/10/04 10:22:10;;;;;;;2.90;2.07;;;16.20;99.90;;;;;;4972950;28;20475;-66
2023/10/04 10:24:45;;;;;;;2.37;1.60;;;16.20;99.90;;;;;;4972328;28;20482;-67
2023/10/04 10:27:15;;;;;;;5.40;1.90;;;16.20;99.90;;;;;;4972767;28;20437;-67
2023/10/04 10:29:42;;;;;;;2.93;2.37;;;16.40;99.90;;;;;;4971998;28;20454;-67
2023/10/04 10:32:17;;;;;;;2.23;1.70;;;16.50;99.90;;;;;;4972886;28;20566;-67
2023/10/04 10:34:46;;;;;;;5.13;2.30;;;16.50;99.90;;;;;;4972369;28;20508;-67
2023/10/04 10:37:22;;;;;;;4.73;2.27;;;16.70;99.90;;;;;;4972189;28;20534;-67
2023/10/04 10:39:50;;;;;;;3.60;1.47;;;16.90;99.90;;;;;;4972754;28;20445;-67
2023/10/04 10:42:18;;;;;;;4.60;2.77;;;17.10;99.90;;;;;;4972329;28;20461;-66
2023/10/04 10:44:45;;;;;;;5.93;2.20;;;17.20;99.90;;;;;;4971991;28;20470;-66
2023/10/04 10:47:18;;;;;;;2.60;2.03;;;17.30;99.90;;;;;;4972521;28;20450;-67
2023/10/04 10:49:56;;;;;;;3.67;2.07;;;17.40;99.90;;;;;;4972378;28;20454;-67
2023/10/04 10:52:31;;;;;;;2.20;2.00;;;17.50;99.90;;;;;;4971447;28;20447;-67
2023/10/04 10:55:00;;;;;;;1.73;1.63;;;17.60;99.90;;;;;;4972254;28;20490;-66
2023/10/04 10:57:29;;;;;;;4.07;2.00;;;17.60;99.90;;;;;;4972396;28;21029;-67
2023/10/04 10:59:57;;;;;;;3.63;2.33;;;17.60;99.90;;;;;;4972224;28;20454;-67
2023/10/04 11:02:26;;;;;;;3.93;1.70;;;17.50;99.90;;;;;;4972194;28;20888;-66
2023/10/04 11:04:55;;;;;;;2.20;2.00;;;17.50;99.90;;;;;;4971858;28;21005;-67
2023/10/04 11:07:23;;;;;;;2.53;1.93;;;17.50;99.90;;;;;;4972089;28;20942;-67
2023/10/04 11:09:51;;;;;;;3.23;2.03;;;17.50;99.90;;;;;;4972265;28;20898;-66
2023/10/04 11:12:19;;;;;;;3.40;1.63;;;17.40;99.90;;;;;;4972173;28;20539;-66
2023/10/04 11:14:46;;;;;;;2.10;1.60;;;17.40;99.90;;;;;;4971786;28;21068;-67
2023/10/04 11:17:14;;;;;;;2.90;1.90;;;17.40;99.90;;;;;;4972245;28;20447;-66
2023/10/04 11:19:41;;;;;;;1.70;1.60;;;17.40;99.90;;;;;;4971825;28;21020;-67
2023/10/04 11:22:11;;;;;;;2.27;1.53;;;17.50;99.90;;;;;;4967724;28;20545;-67
2023/10/04 11:24:40;;;;;;;3.20;1.57;;;17.60;99.90;;;;;;4964687;28;20482;-66
2023/10/04 11:27:07;;;;;;;4.53;2.37;;;17.70;99.90;;;;;;4966394;28;20441;-66
2023/10/04 11:29:35;;;;;;;1.70;1.60;;;17.70;99.90;;;;;;4961083;28;20534;-66
2023/10/04 11:32:02;;;;;;;1.53;1.43;;;17.60;99.90;;;;;;4971933;28;20478;-66
2023/10/04 11:34:30;;;;;;;2.30;1.90;;;17.50;99.90;;;;;;4971555;28;20506;-67
2023/10/04 11:37:01;;;;;;;2.20;1.40;;;17.60;99.90;;;;;;4971744;28;20986;-66
2023/10/04 11:39:33;;;;;;;2.00;1.90;;;17.70;99.90;;;;;;4971656;28;20459;-67
2023/10/04 11:42:02;;;;;;;2.60;1.43;;;17.90;99.90;;;;;;4971281;28;20459;-67
2023/10/04 11:44:31;;;;;;;4.60;1.80;;;18.10;99.90;;;;;;4955497;28;20500;-68
2023/10/04 11:47:00;;;;;;;3.90;1.57;;;18.30;99.50;;;;;;4971948;28;20451;-67
2023/10/04 11:49:28;;;;;;;2.43;1.43;;;18.40;98.90;;;;;;4971537;28;20441;-67
2023/10/04 11:51:58;;;;;;;2.63;1.40;;;18.60;99.10;;;;;;4971681;28;20444;-67
2023/10/04 11:54:26;;;;;;;1.80;1.70;;;18.80;99.00;;;;;;4971235;28;20531;-66
2023/10/04 11:56:55;;;;;;;2.70;2.40;;;18.90;97.70;;;;;;4955827;28;20479;-67
2023/10/04 11:59:29;;;;;;;4.80;2.70;;;19.00;97.90;;;;;;4971689;28;20463;-67
2023/10/04 12:01:56;;;;;;;7.10;3.83;;;19.20;97.50;;;;;;4971626;28;20462;-67
2023/10/04 12:06:58;;;;;;;3.33;1.60;;;19.50;96.70;;;;;;5029254;22;20632;-64
2023/10/04 12:09:27;;;;;;;2.43;2.23;;;19.60;96.90;;;;;;5011469;28;20214;-64
2023/10/04 12:11:56;;;;;;;4.13;1.93;;;19.70;95.20;;;;;;5014281;28;20454;-63
2023/10/04 12:14:24;;;;;;;19.30;5.40;;;19.80;96.10;;;;;;5013835;28;20975;-64
2023/10/04 12:16:52;;;;;;;3.87;2.03;;;20.00;95.90;;;;;;5017409;28;21428;-64
2023/10/04 12:19:19;;;;;;;18.57;3.30;;;20.10;95.60;;;;;;5026806;28;20935;-64
2023/10/04 12:21:47;;;;;;;4.40;2.40;;;20.30;94.80;;;;;;5024906;28;20516;-64
2023/10/04 12:24:14;;;;;;;6.13;2.10;;;20.50;94.60;;;;;;5016439;28;20961;-64
2023/10/04 12:26:41;;;;;;;2.33;1.70;;;20.60;94.10;;;;;;5030580;28;20494;-64
2023/10/04 12:29:11;;;;;;;2.63;2.30;;;20.70;94.10;;;;;;5019678;28;20885;-64
2023/10/04 12:31:38;;;;;;;4.10;1.80;;;20.80;93.70;;;;;;5024095;28;20451;-64
2023/10/04 12:34:05;;;;;;;5.70;2.27;;;20.70;92.80;;;;;;5027170;28;20447;-64
2023/10/04 12:36:32;;;;;;;4.10;2.27;;;20.50;92.90;;;;;;5017289;28;20544;-63
2023/10/04 12:38:59;;;;;;;4.67;2.37;;;20.30;93.20;;;;;;5029043;28;20486;-63
2023/10/04 12:41:26;;;;;;;5.40;2.03;;;20.10;94.20;;;;;;5021861;28;20445;-64
2023/10/04 12:43:52;;;;;;;2.90;1.97;;;19.90;94.20;;;;;;5024885;28;20445;-64
2023/10/04 12:46:21;;;;;;;3.10;1.97;;;19.80;94.20;;;;;;5033354;28;20536;-64
2023/10/04 12:48:48;;;;;;;3.03;1.80;;;19.80;94.80;;;;;;5017207;28;20450;-63
2023/10/04 12:51:15;;;;;;;2.73;1.67;;;19.70;95.10;;;;;;5027047;28;20447;-64
2023/10/04 12:53:44;;;;;;;2.57;2.13;;;19.60;94.20;;;;;;5023433;28;20467;-64
2023/10/04 12:56:12;;;;;;;4.10;1.97;;;19.60;94.90;;;;;;5019222;28;20526;-63
2023/10/04 12:58:39;;;;;;;3.80;2.10;;;19.50;93.60;;;;;;5029694;28;20452;-64
2023/10/04 13:01:06;;;;;;;2.20;2.00;;;19.60;94.50;;;;;;5018539;28;20449;-63